sensor_id;sensor_type;location;lat;lon;timestamp;P1;durP1;ratioP1;P2;durP2;ratioP2
7605;SDS011;3844;53.360;9.738;2023-05-10T00:00:17;4.90;;;2.33;;
7605;SDS011;3844;53.360;9.738;2023-05-10T00:02:17;6.10;;;2.50;;
7605;SDS011;3844;53.360;9.738;2023-05-10T00:04:18;4.22;;;2.28;;
7605;SDS011;3844;53.360;9.738;2023-05-10T00:06:19;5.22;;;2.50;;
7605;SDS011;3844;53.360;9.738;2023-05-10T00:08:20;7.53;;;2.38;;
7605;SDS011;3844;53.360;9.738;2023-05-10T00:10:21;5.82;;;2.78;;
7605;SDS011;3844;53.360;9.738;2023-05-10T00:12:21;6.85;;;2.50;;
7605;SDS011;3844;53.360;9.738;2023-05-10T00:14:22;4.60;;;2.50;;
7605;SDS011;3844;53.360;9.738;2023-05-10T00:16:23;6.10;;;2.30;;
7605;SDS011;3844;53.360;9.738;2023-05-10T00:18:23;4.88;;;2.58;;
7605;SDS011;3844;53.360;9.738;2023-05-10T00:20:24;4.03;;;2.20;;
7605;SDS011;3844;53.360;9.738;2023-05-10T00:22:25;7.20;;;2.60;;
7605;SDS011;3844;53.360;9.738;2023-05-10T00:24:26;6.53;;;2.50;;
7605;SDS011;3844;53.360;9.738;2023-05-10T00:26:27;4.85;;;2.50;;
7605;SDS011;3844;53.360;9.738;2023-05-10T00:28:27;4.50;;;2.45;;
7605;SDS011;3844;53.360;9.738;2023-05-10T00:30:29;5.70;;;2.70;;
7605;SDS011;3844;53.360;9.738;2023-05-10T00:32:29;5.03;;;2.50;;
7605;SDS011;3844;53.360;9.738;2023-05-10T00:34:30;6.47;;;2.78;;
7605;SDS011;3844;53.360;9.738;2023-05-10T00:36:31;4.63;;;2.50;;
7605;SDS011;3844;53.360;9.738;2023-05-10T00:38:32;5.25;;;2.72;;
7605;SDS011;3844;53.360;9.738;2023-05-10T00:40:35;5.63;;;2.63;;
7605;SDS011;3844;53.360;9.738;2023-05-10T00:42:37;5.85;;;2.50;;
7605;SDS011;3844;53.360;9.738;2023-05-10T00:44:37;6.53;;;2.78;;
7605;SDS011;3844;53.360;9.738;2023-05-10T00:46:38;4.32;;;2.30;;
7605;SDS011;3844;53.360;9.738;2023-05-10T00:48:39;8.38;;;2.55;;
7605;SDS011;3844;53.360;9.738;2023-05-10T00:50:40;6.35;;;2.63;;
7605;SDS011;3844;53.360;9.738;2023-05-10T00:52:41;5.13;;;2.50;;
7605;SDS011;3844;53.360;9.738;2023-05-10T00:54:42;6.65;;;2.70;;
7605;SDS011;3844;53.360;9.738;2023-05-10T00:56:43;6.00;;;2.72;;
7605;SDS011;3844;53.360;9.738;2023-05-10T00:58:48;6.72;;;2.55;;
7605;SDS011;3844;53.360;9.738;2023-05-10T01:00:49;4.85;;;2.65;;
7605;SDS011;3844;53.360;9.738;2023-05-10T01:02:53;7.20;;;2.80;;
7605;SDS011;3844;53.360;9.738;2023-05-10T01:04:54;6.18;;;2.67;;
7605;SDS011;3844;53.360;9.738;2023-05-10T01:06:55;4.68;;;2.70;;
7605;SDS011;3844;53.360;9.738;2023-05-10T01:08:56;6.50;;;2.67;;
7605;SDS011;3844;53.360;9.738;2023-05-10T01:10:57;6.43;;;2.80;;
7605;SDS011;3844;53.360;9.738;2023-05-10T01:12:58;5.05;;;2.38;;
7605;SDS011;3844;53.360;9.738;2023-05-10T01:15:00;5.45;;;2.75;;
7605;SDS011;3844;53.360;9.738;2023-05-10T01:17:02;5.65;;;2.83;;
7605;SDS011;3844;53.360;9.738;2023-05-10T01:19:26;6.30;;;2.90;;
7605;SDS011;3844;53.360;9.738;2023-05-10T01:21:49;6.47;;;2.55;;
7605;SDS011;3844;53.360;9.738;2023-05-10T01:35:47;7.03;;;2.50;;
7605;SDS011;3844;53.360;9.738;2023-05-10T01:37:29;5.55;;;2.90;;
7605;SDS011;3844;53.360;9.738;2023-05-10T01:39:48;5.63;;;2.60;;
7605;SDS011;3844;53.360;9.738;2023-05-10T01:41:57;6.35;;;2.95;;
7605;SDS011;3844;53.360;9.738;2023-05-10T01:46:24;5.55;;;2.55;;
7605;SDS011;3844;53.360;9.738;2023-05-10T01:48:33;5.93;;;2.75;;
7605;SDS011;3844;53.360;9.738;2023-05-10T01:50:34;5.07;;;2.78;;
7605;SDS011;3844;53.360;9.738;2023-05-10T01:52:38;4.97;;;2.85;;
7605;SDS011;3844;53.360;9.738;2023-05-10T01:54:44;5.70;;;2.85;;
7605;SDS011;3844;53.360;9.738;2023-05-10T01:56:52;5.57;;;3.00;;
7605;SDS011;3844;53.360;9.738;2023-05-10T01:58:59;5.18;;;2.90;;
7605;SDS011;3844;53.360;9.738;2023-05-10T02:01:03;5.03;;;2.90;;
7605;SDS011;3844;53.360;9.738;2023-05-10T02:03:06;5.53;;;2.70;;
7605;SDS011;3844;53.360;9.738;2023-05-10T02:05:08;7.80;;;2.93;;
7605;SDS011;3844;53.360;9.738;2023-05-10T02:07:12;6.32;;;2.70;;
7605;SDS011;3844;53.360;9.738;2023-05-10T02:09:14;6.28;;;2.85;;
7605;SDS011;3844;53.360;9.738;2023-05-10T02:11:17;6.22;;;2.97;;
7605;SDS011;3844;53.360;9.738;2023-05-10T02:13:18;6.05;;;3.10;;
7605;SDS011;3844;53.360;9.738;2023-05-10T02:15:23;5.07;;;2.83;;
7605;SDS011;3844;53.360;9.738;2023-05-10T02:17:25;5.35;;;2.80;;
7605;SDS011;3844;53.360;9.738;2023-05-10T02:19:27;6.30;;;3.33;;
7605;SDS011;3844;53.360;9.738;2023-05-10T02:21:30;6.88;;;2.90;;
7605;SDS011;3844;53.360;9.738;2023-05-10T02:23:32;5.53;;;2.90;;
7605;SDS011;3844;53.360;9.738;2023-05-10T02:25:35;7.82;;;3.30;;
7605;SDS011;3844;53.360;9.738;2023-05-10T02:29:41;6.03;;;3.45;;
7605;SDS011;3844;53.360;9.738;2023-05-10T02:31:42;7.03;;;3.10;;
7605;SDS011;3844;53.360;9.738;2023-05-10T02:33:44;7.85;;;3.13;;
7605;SDS011;3844;53.360;9.738;2023-05-10T02:35:47;6.80;;;3.00;;
7605;SDS011;3844;53.360;9.738;2023-05-10T02:37:48;6.78;;;2.90;;
7605;SDS011;3844;53.360;9.738;2023-05-10T02:39:50;6.93;;;3.40;;
7605;SDS011;3844;53.360;9.738;2023-05-10T02:41:54;6.10;;;2.90;;
7605;SDS011;3844;53.360;9.738;2023-05-10T02:43:56;6.55;;;3.10;;
7605;SDS011;3844;53.360;9.738;2023-05-10T02:46:00;6.32;;;3.30;;
7605;SDS011;3844;53.360;9.738;2023-05-10T02:48:01;5.82;;;3.15;;
7605;SDS011;3844;53.360;9.738;2023-05-10T02:50:02;7.55;;;3.50;;
7605;SDS011;3844;53.360;9.738;2023-05-10T02:52:05;5.80;;;3.40;;
7605;SDS011;3844;53.360;9.738;2023-05-10T02:54:16;6.75;;;3.10;;
7605;SDS011;3844;53.360;9.738;2023-05-10T02:56:23;7.57;;;3.40;;
7605;SDS011;3844;53.360;9.738;2023-05-10T02:58:28;6.40;;;2.97;;
7605;SDS011;3844;53.360;9.738;2023-05-10T03:00:29;6.75;;;3.35;;
7605;SDS011;3844;53.360;9.738;2023-05-10T03:02:30;6.07;;;3.47;;
7605;SDS011;3844;53.360;9.738;2023-05-10T03:04:31;6.50;;;3.50;;
7605;SDS011;3844;53.360;9.738;2023-05-10T03:06:32;8.80;;;3.45;;
7605;SDS011;3844;53.360;9.738;2023-05-10T03:08:33;6.43;;;3.13;;
7605;SDS011;3844;53.360;9.738;2023-05-10T03:10:36;6.60;;;3.22;;
7605;SDS011;3844;53.360;9.738;2023-05-10T03:20:25;7.53;;;3.42;;
7605;SDS011;3844;53.360;9.738;2023-05-10T03:22:37;8.02;;;3.38;;
7605;SDS011;3844;53.360;9.738;2023-05-10T03:24:39;6.30;;;3.28;;
7605;SDS011;3844;53.360;9.738;2023-05-10T03:26:43;6.60;;;3.00;;
7605;SDS011;3844;53.360;9.738;2023-05-10T03:28:45;5.07;;;3.17;;
7605;SDS011;3844;53.360;9.738;2023-05-10T03:30:48;5.40;;;3.22;;
7605;SDS011;3844;53.360;9.738;2023-05-10T03:32:50;8.77;;;3.35;;
7605;SDS011;3844;53.360;9.738;2023-05-10T03:34:51;5.78;;;3.33;;
7605;SDS011;3844;53.360;9.738;2023-05-10T03:36:52;9.55;;;3.60;;
7605;SDS011;3844;53.360;9.738;2023-05-10T03:38:52;6.95;;;3.50;;
7605;SDS011;3844;53.360;9.738;2023-05-10T03:40:53;7.05;;;3.30;;
7605;SDS011;3844;53.360;9.738;2023-05-10T03:42:55;6.75;;;3.55;;
7605;SDS011;3844;53.360;9.738;2023-05-10T03:44:56;6.05;;;3.50;;
7605;SDS011;3844;53.360;9.738;2023-05-10T03:46:57;5.63;;;3.25;;
7605;SDS011;3844;53.360;9.738;2023-05-10T03:48:57;6.57;;;3.38;;
7605;SDS011;3844;53.360;9.738;2023-05-10T03:50:59;5.95;;;3.38;;
7605;SDS011;3844;53.360;9.738;2023-05-10T03:52:59;6.88;;;3.50;;
7605;SDS011;3844;53.360;9.738;2023-05-10T03:55:00;7.88;;;3.70;;
7605;SDS011;3844;53.360;9.738;2023-05-10T03:57:03;5.88;;;3.78;;
7605;SDS011;3844;53.360;9.738;2023-05-10T03:59:04;5.75;;;3.67;;
7605;SDS011;3844;53.360;9.738;2023-05-10T04:01:07;5.38;;;3.30;;
7605;SDS011;3844;53.360;9.738;2023-05-10T04:03:08;7.65;;;3.60;;
7605;SDS011;3844;53.360;9.738;2023-05-10T04:05:09;6.63;;;3.42;;
7605;SDS011;3844;53.360;9.738;2023-05-10T04:07:10;7.72;;;3.20;;
7605;SDS011;3844;53.360;9.738;2023-05-10T04:09:10;5.80;;;3.35;;
7605;SDS011;3844;53.360;9.738;2023-05-10T04:11:11;6.25;;;3.40;;
7605;SDS011;3844;53.360;9.738;2023-05-10T04:13:13;7.78;;;3.67;;
7605;SDS011;3844;53.360;9.738;2023-05-10T04:15:14;7.63;;;3.78;;
7605;SDS011;3844;53.360;9.738;2023-05-10T04:17:15;7.28;;;3.50;;
7605;SDS011;3844;53.360;9.738;2023-05-10T04:19:15;6.40;;;3.85;;
7605;SDS011;3844;53.360;9.738;2023-05-10T04:21:16;5.38;;;3.13;;
7605;SDS011;3844;53.360;9.738;2023-05-10T04:23:17;6.97;;;3.60;;
7605;SDS011;3844;53.360;9.738;2023-05-10T04:25:18;6.70;;;3.47;;
7605;SDS011;3844;53.360;9.738;2023-05-10T04:27:19;6.70;;;3.58;;
7605;SDS011;3844;53.360;9.738;2023-05-10T04:29:20;7.80;;;3.28;;
7605;SDS011;3844;53.360;9.738;2023-05-10T04:31:21;7.03;;;3.63;;
7605;SDS011;3844;53.360;9.738;2023-05-10T04:33:22;6.88;;;3.60;;
7605;SDS011;3844;53.360;9.738;2023-05-10T04:35:22;5.97;;;3.30;;
7605;SDS011;3844;53.360;9.738;2023-05-10T04:37:23;7.05;;;4.00;;
7605;SDS011;3844;53.360;9.738;2023-05-10T04:39:24;8.80;;;3.80;;
7605;SDS011;3844;53.360;9.738;2023-05-10T04:41:24;7.68;;;3.80;;
7605;SDS011;3844;53.360;9.738;2023-05-10T04:43:25;8.00;;;3.55;;
7605;SDS011;3844;53.360;9.738;2023-05-10T04:45:26;7.13;;;3.50;;
7605;SDS011;3844;53.360;9.738;2023-05-10T04:47:27;6.13;;;3.50;;
7605;SDS011;3844;53.360;9.738;2023-05-10T04:49:28;7.65;;;3.50;;
7605;SDS011;3844;53.360;9.738;2023-05-10T04:51:29;8.65;;;3.60;;
7605;SDS011;3844;53.360;9.738;2023-05-10T04:53:31;5.70;;;3.30;;
7605;SDS011;3844;53.360;9.738;2023-05-10T04:55:32;6.68;;;3.75;;
7605;SDS011;3844;53.360;9.738;2023-05-10T04:57:33;7.82;;;3.30;;
7605;SDS011;3844;53.360;9.738;2023-05-10T04:59:35;6.88;;;3.40;;
7605;SDS011;3844;53.360;9.738;2023-05-10T05:01:37;5.68;;;3.70;;
7605;SDS011;3844;53.360;9.738;2023-05-10T05:03:38;6.22;;;3.38;;
7605;SDS011;3844;53.360;9.738;2023-05-10T05:05:38;6.57;;;3.70;;
7605;SDS011;3844;53.360;9.738;2023-05-10T05:07:39;7.05;;;3.47;;
7605;SDS011;3844;53.360;9.738;2023-05-10T05:09:40;7.13;;;3.72;;
7605;SDS011;3844;53.360;9.738;2023-05-10T05:11:41;7.15;;;3.30;;
7605;SDS011;3844;53.360;9.738;2023-05-10T05:13:41;7.85;;;3.58;;
7605;SDS011;3844;53.360;9.738;2023-05-10T05:15:42;7.82;;;3.65;;
7605;SDS011;3844;53.360;9.738;2023-05-10T05:17:43;7.07;;;3.80;;
7605;SDS011;3844;53.360;9.738;2023-05-10T05:19:44;10.52;;;3.55;;
7605;SDS011;3844;53.360;9.738;2023-05-10T05:21:44;6.18;;;3.47;;
7605;SDS011;3844;53.360;9.738;2023-05-10T05:23:45;6.30;;;3.47;;
7605;SDS011;3844;53.360;9.738;2023-05-10T05:25:46;6.07;;;3.13;;
7605;SDS011;3844;53.360;9.738;2023-05-10T05:27:47;6.28;;;3.40;;
7605;SDS011;3844;53.360;9.738;2023-05-10T05:29:48;6.13;;;3.60;;
7605;SDS011;3844;53.360;9.738;2023-05-10T05:31:48;7.40;;;3.45;;
7605;SDS011;3844;53.360;9.738;2023-05-10T05:33:49;7.25;;;3.67;;
7605;SDS011;3844;53.360;9.738;2023-05-10T05:35:50;7.45;;;3.47;;
7605;SDS011;3844;53.360;9.738;2023-05-10T05:37:50;5.65;;;3.28;;
7605;SDS011;3844;53.360;9.738;2023-05-10T05:39:51;6.13;;;3.50;;
7605;SDS011;3844;53.360;9.738;2023-05-10T05:41:52;8.57;;;3.72;;
7605;SDS011;3844;53.360;9.738;2023-05-10T05:43:53;6.80;;;3.92;;
7605;SDS011;3844;53.360;9.738;2023-05-10T05:45:54;6.20;;;3.55;;
7605;SDS011;3844;53.360;9.738;2023-05-10T05:47:55;6.38;;;3.45;;
7605;SDS011;3844;53.360;9.738;2023-05-10T05:49:56;6.05;;;3.47;;
7605;SDS011;3844;53.360;9.738;2023-05-10T05:52:03;8.18;;;3.42;;
7605;SDS011;3844;53.360;9.738;2023-05-10T05:54:04;6.75;;;3.80;;
7605;SDS011;3844;53.360;9.738;2023-05-10T05:56:05;6.45;;;3.50;;
7605;SDS011;3844;53.360;9.738;2023-05-10T05:58:06;6.07;;;3.33;;
7605;SDS011;3844;53.360;9.738;2023-05-10T06:00:07;6.25;;;3.72;;
7605;SDS011;3844;53.360;9.738;2023-05-10T06:02:08;6.00;;;3.72;;
7605;SDS011;3844;53.360;9.738;2023-05-10T06:04:09;6.13;;;3.78;;
7605;SDS011;3844;53.360;9.738;2023-05-10T06:06:10;7.07;;;3.60;;
7605;SDS011;3844;53.360;9.738;2023-05-10T06:08:12;8.05;;;3.65;;
7605;SDS011;3844;53.360;9.738;2023-05-10T06:10:13;4.55;;;3.08;;
7605;SDS011;3844;53.360;9.738;2023-05-10T06:12:13;7.10;;;3.72;;
7605;SDS011;3844;53.360;9.738;2023-05-10T06:14:14;6.57;;;3.15;;
7605;SDS011;3844;53.360;9.738;2023-05-10T06:16:15;5.40;;;3.20;;
7605;SDS011;3844;53.360;9.738;2023-05-10T06:18:16;6.65;;;3.28;;
7605;SDS011;3844;53.360;9.738;2023-05-10T06:20:16;7.78;;;3.05;;
7605;SDS011;3844;53.360;9.738;2023-05-10T06:22:17;7.85;;;3.58;;
7605;SDS011;3844;53.360;9.738;2023-05-10T06:24:18;6.60;;;3.72;;
7605;SDS011;3844;53.360;9.738;2023-05-10T06:26:19;6.30;;;3.38;;
7605;SDS011;3844;53.360;9.738;2023-05-10T06:28:20;7.40;;;3.80;;
7605;SDS011;3844;53.360;9.738;2023-05-10T06:30:21;6.82;;;3.38;;
7605;SDS011;3844;53.360;9.738;2023-05-10T06:32:27;7.45;;;3.42;;
7605;SDS011;3844;53.360;9.738;2023-05-10T06:34:27;7.25;;;3.00;;
7605;SDS011;3844;53.360;9.738;2023-05-10T06:36:28;6.80;;;3.83;;
7605;SDS011;3844;53.360;9.738;2023-05-10T06:38:29;7.75;;;3.60;;
7605;SDS011;3844;53.360;9.738;2023-05-10T06:40:30;5.60;;;3.40;;
7605;SDS011;3844;53.360;9.738;2023-05-10T06:42:30;5.35;;;3.47;;
7605;SDS011;3844;53.360;9.738;2023-05-10T06:44:32;7.35;;;3.25;;
7605;SDS011;3844;53.360;9.738;2023-05-10T06:46:33;6.80;;;3.50;;
7605;SDS011;3844;53.360;9.738;2023-05-10T06:48:34;7.75;;;3.60;;
7605;SDS011;3844;53.360;9.738;2023-05-10T06:50:34;7.85;;;3.50;;
7605;SDS011;3844;53.360;9.738;2023-05-10T06:52:35;7.72;;;3.47;;
7605;SDS011;3844;53.360;9.738;2023-05-10T06:54:36;4.55;;;3.00;;
7605;SDS011;3844;53.360;9.738;2023-05-10T06:56:36;4.97;;;3.05;;
7605;SDS011;3844;53.360;9.738;2023-05-10T06:58:37;6.72;;;3.30;;
7605;SDS011;3844;53.360;9.738;2023-05-10T07:00:38;5.95;;;3.60;;
7605;SDS011;3844;53.360;9.738;2023-05-10T07:02:40;6.40;;;3.53;;
7605;SDS011;3844;53.360;9.738;2023-05-10T07:04:41;7.45;;;3.53;;
7605;SDS011;3844;53.360;9.738;2023-05-10T07:06:41;5.78;;;3.40;;
7605;SDS011;3844;53.360;9.738;2023-05-10T07:08:42;5.38;;;3.42;;
7605;SDS011;3844;53.360;9.738;2023-05-10T07:10:43;7.75;;;3.70;;
7605;SDS011;3844;53.360;9.738;2023-05-10T07:12:43;5.15;;;3.28;;
7605;SDS011;3844;53.360;9.738;2023-05-10T07:14:44;5.47;;;3.30;;
7605;SDS011;3844;53.360;9.738;2023-05-10T07:16:45;9.00;;;3.63;;
7605;SDS011;3844;53.360;9.738;2023-05-10T07:18:47;5.93;;;3.47;;
7605;SDS011;3844;53.360;9.738;2023-05-10T07:20:48;7.93;;;3.60;;
7605;SDS011;3844;53.360;9.738;2023-05-10T07:22:48;8.40;;;3.65;;
7605;SDS011;3844;53.360;9.738;2023-05-10T07:24:49;7.78;;;3.67;;
7605;SDS011;3844;53.360;9.738;2023-05-10T07:26:50;6.10;;;3.50;;
7605;SDS011;3844;53.360;9.738;2023-05-10T07:28:51;7.35;;;3.38;;
7605;SDS011;3844;53.360;9.738;2023-05-10T07:30:52;5.47;;;3.20;;
7605;SDS011;3844;53.360;9.738;2023-05-10T07:32:52;6.57;;;3.70;;
7605;SDS011;3844;53.360;9.738;2023-05-10T07:34:53;7.75;;;3.70;;
7605;SDS011;3844;53.360;9.738;2023-05-10T07:36:54;9.38;;;3.90;;
7605;SDS011;3844;53.360;9.738;2023-05-10T07:38:55;9.10;;;3.70;;
7605;SDS011;3844;53.360;9.738;2023-05-10T07:40:57;7.53;;;3.88;;
7605;SDS011;3844;53.360;9.738;2023-05-10T07:42:58;7.80;;;3.80;;
7605;SDS011;3844;53.360;9.738;2023-05-10T07:44:59;8.27;;;3.72;;
7605;SDS011;3844;53.360;9.738;2023-05-10T07:47:00;8.73;;;3.88;;
7605;SDS011;3844;53.360;9.738;2023-05-10T07:49:01;7.10;;;3.92;;
7605;SDS011;3844;53.360;9.738;2023-05-10T07:51:02;8.73;;;3.60;;
7605;SDS011;3844;53.360;9.738;2023-05-10T07:53:02;9.27;;;3.58;;
7605;SDS011;3844;53.360;9.738;2023-05-10T07:55:03;8.27;;;3.65;;
7605;SDS011;3844;53.360;9.738;2023-05-10T07:57:04;7.47;;;3.83;;
7605;SDS011;3844;53.360;9.738;2023-05-10T07:59:06;7.68;;;3.70;;
7605;SDS011;3844;53.360;9.738;2023-05-10T08:01:06;9.23;;;4.18;;
7605;SDS011;3844;53.360;9.738;2023-05-10T08:03:07;7.47;;;3.90;;
7605;SDS011;3844;53.360;9.738;2023-05-10T08:05:08;8.63;;;3.60;;
7605;SDS011;3844;53.360;9.738;2023-05-10T08:07:09;8.05;;;3.78;;
7605;SDS011;3844;53.360;9.738;2023-05-10T08:09:10;9.10;;;4.10;;
7605;SDS011;3844;53.360;9.738;2023-05-10T08:11:11;7.28;;;4.30;;
7605;SDS011;3844;53.360;9.738;2023-05-10T08:13:12;6.43;;;3.97;;
7605;SDS011;3844;53.360;9.738;2023-05-10T08:15:13;6.43;;;3.65;;
7605;SDS011;3844;53.360;9.738;2023-05-10T08:17:14;7.13;;;4.43;;
7605;SDS011;3844;53.360;9.738;2023-05-10T08:19:14;7.05;;;4.10;;
7605;SDS011;3844;53.360;9.738;2023-05-10T08:21:18;6.63;;;4.32;;
7605;SDS011;3844;53.360;9.738;2023-05-10T08:23:19;8.45;;;4.10;;
7605;SDS011;3844;53.360;9.738;2023-05-10T08:25:20;7.72;;;4.22;;
7605;SDS011;3844;53.360;9.738;2023-05-10T08:27:21;7.07;;;4.00;;
7605;SDS011;3844;53.360;9.738;2023-05-10T08:29:22;7.82;;;4.30;;
7605;SDS011;3844;53.360;9.738;2023-05-10T08:31:22;10.02;;;4.47;;
7605;SDS011;3844;53.360;9.738;2023-05-10T08:33:23;7.90;;;4.75;;
7605;SDS011;3844;53.360;9.738;2023-05-10T08:35:24;6.97;;;4.35;;
7605;SDS011;3844;53.360;9.738;2023-05-10T08:37:25;9.48;;;4.65;;
7605;SDS011;3844;53.360;9.738;2023-05-10T08:39:26;11.45;;;5.10;;
7605;SDS011;3844;53.360;9.738;2023-05-10T08:41:27;9.18;;;5.05;;
7605;SDS011;3844;53.360;9.738;2023-05-10T08:43:30;6.93;;;4.57;;
7605;SDS011;3844;53.360;9.738;2023-05-10T08:45:32;8.48;;;5.18;;
7605;SDS011;3844;53.360;9.738;2023-05-10T08:47:37;10.35;;;5.00;;
7605;SDS011;3844;53.360;9.738;2023-05-10T08:49:39;7.40;;;4.88;;
7605;SDS011;3844;53.360;9.738;2023-05-10T08:51:40;8.82;;;5.43;;
7605;SDS011;3844;53.360;9.738;2023-05-10T08:53:44;9.52;;;5.40;;
7605;SDS011;3844;53.360;9.738;2023-05-10T08:55:45;8.98;;;5.20;;
7605;SDS011;3844;53.360;9.738;2023-05-10T08:57:47;8.88;;;4.97;;
7605;SDS011;3844;53.360;9.738;2023-05-10T08:59:47;7.80;;;5.15;;
7605;SDS011;3844;53.360;9.738;2023-05-10T09:01:48;9.82;;;5.65;;
7605;SDS011;3844;53.360;9.738;2023-05-10T09:03:50;9.02;;;5.25;;
7605;SDS011;3844;53.360;9.738;2023-05-10T09:05:51;10.85;;;6.20;;
7605;SDS011;3844;53.360;9.738;2023-05-10T09:07:51;9.18;;;6.45;;
7605;SDS011;3844;53.360;9.738;2023-05-10T09:09:52;10.43;;;6.70;;
7605;SDS011;3844;53.360;9.738;2023-05-10T09:11:54;10.10;;;5.90;;
7605;SDS011;3844;53.360;9.738;2023-05-10T09:13:55;9.63;;;6.18;;
7605;SDS011;3844;53.360;9.738;2023-05-10T09:15:56;9.90;;;6.10;;
7605;SDS011;3844;53.360;9.738;2023-05-10T09:17:57;10.68;;;6.90;;
7605;SDS011;3844;53.360;9.738;2023-05-10T09:20:02;12.07;;;6.55;;
7605;SDS011;3844;53.360;9.738;2023-05-10T09:22:04;10.55;;;7.10;;
7605;SDS011;3844;53.360;9.738;2023-05-10T09:24:05;10.55;;;6.60;;
7605;SDS011;3844;53.360;9.738;2023-05-10T09:26:07;10.02;;;6.30;;
7605;SDS011;3844;53.360;9.738;2023-05-10T09:28:08;10.70;;;6.82;;
7605;SDS011;3844;53.360;9.738;2023-05-10T09:30:09;10.85;;;6.55;;
7605;SDS011;3844;53.360;9.738;2023-05-10T09:32:11;9.77;;;6.07;;
7605;SDS011;3844;53.360;9.738;2023-05-10T09:34:15;10.90;;;6.45;;
7605;SDS011;3844;53.360;9.738;2023-05-10T09:36:20;9.18;;;6.85;;
7605;SDS011;3844;53.360;9.738;2023-05-10T09:38:21;10.57;;;6.40;;
7605;SDS011;3844;53.360;9.738;2023-05-10T09:40:23;10.20;;;6.97;;
7605;SDS011;3844;53.360;9.738;2023-05-10T09:42:25;11.75;;;6.50;;
7605;SDS011;3844;53.360;9.738;2023-05-10T09:44:26;9.35;;;6.22;;
7605;SDS011;3844;53.360;9.738;2023-05-10T09:46:27;9.75;;;6.63;;
7605;SDS011;3844;53.360;9.738;2023-05-10T09:48:27;10.25;;;6.85;;
7605;SDS011;3844;53.360;9.738;2023-05-10T09:50:29;9.68;;;6.40;;
7605;SDS011;3844;53.360;9.738;2023-05-10T09:52:30;11.00;;;7.03;;
7605;SDS011;3844;53.360;9.738;2023-05-10T09:54:53;11.52;;;6.40;;
7605;SDS011;3844;53.360;9.738;2023-05-10T09:56:54;9.25;;;6.50;;
7605;SDS011;3844;53.360;9.738;2023-05-10T09:59:02;11.90;;;7.07;;
7605;SDS011;3844;53.360;9.738;2023-05-10T10:01:03;11.02;;;7.50;;
7605;SDS011;3844;53.360;9.738;2023-05-10T10:03:04;14.45;;;8.70;;
7605;SDS011;3844;53.360;9.738;2023-05-10T10:05:06;10.95;;;6.90;;
7605;SDS011;3844;53.360;9.738;2023-05-10T10:07:07;10.57;;;6.78;;
7605;SDS011;3844;53.360;9.738;2023-05-10T10:09:08;10.82;;;7.22;;
7605;SDS011;3844;53.360;9.738;2023-05-10T10:11:09;10.18;;;7.20;;
7605;SDS011;3844;53.360;9.738;2023-05-10T10:13:10;9.77;;;6.90;;
7605;SDS011;3844;53.360;9.738;2023-05-10T10:15:11;12.80;;;9.25;;
7605;SDS011;3844;53.360;9.738;2023-05-10T10:17:12;13.52;;;7.85;;
7605;SDS011;3844;53.360;9.738;2023-05-10T10:19:13;10.95;;;7.43;;
7605;SDS011;3844;53.360;9.738;2023-05-10T10:21:15;14.90;;;9.38;;
7605;SDS011;3844;53.360;9.738;2023-05-10T10:23:16;14.48;;;8.68;;
7605;SDS011;3844;53.360;9.738;2023-05-10T10:25:17;14.15;;;9.43;;
7605;SDS011;3844;53.360;9.738;2023-05-10T10:27:22;11.85;;;8.40;;
7605;SDS011;3844;53.360;9.738;2023-05-10T10:29:49;14.65;;;10.13;;
7605;SDS011;3844;53.360;9.738;2023-05-10T10:34:09;10.68;;;7.53;;
7605;SDS011;3844;53.360;9.738;2023-05-10T10:36:17;13.57;;;9.25;;
7605;SDS011;3844;53.360;9.738;2023-05-10T10:38:18;11.57;;;7.72;;
7605;SDS011;3844;53.360;9.738;2023-05-10T10:40:27;10.77;;;7.97;;
7605;SDS011;3844;53.360;9.738;2023-05-10T10:42:44;11.57;;;7.68;;
7605;SDS011;3844;53.360;9.738;2023-05-10T10:44:49;11.60;;;8.18;;
7605;SDS011;3844;53.360;9.738;2023-05-10T10:49:18;15.70;;;10.07;;
7605;SDS011;3844;53.360;9.738;2023-05-10T10:51:20;11.85;;;8.02;;
7605;SDS011;3844;53.360;9.738;2023-05-10T10:53:21;13.73;;;9.60;;
7605;SDS011;3844;53.360;9.738;2023-05-10T10:55:21;13.40;;;9.65;;
7605;SDS011;3844;53.360;9.738;2023-05-10T10:57:26;15.95;;;10.18;;
7605;SDS011;3844;53.360;9.738;2023-05-10T10:59:30;14.02;;;9.55;;
7605;SDS011;3844;53.360;9.738;2023-05-10T11:01:34;13.40;;;8.45;;
7605;SDS011;3844;53.360;9.738;2023-05-10T11:03:35;14.27;;;10.15;;
7605;SDS011;3844;53.360;9.738;2023-05-10T11:05:40;14.90;;;9.43;;
7605;SDS011;3844;53.360;9.738;2023-05-10T11:10:20;13.48;;;9.70;;
7605;SDS011;3844;53.360;9.738;2023-05-10T11:12:23;12.02;;;8.25;;
7605;SDS011;3844;53.360;9.738;2023-05-10T11:14:24;12.18;;;8.68;;
7605;SDS011;3844;53.360;9.738;2023-05-10T11:16:27;13.65;;;9.10;;
7605;SDS011;3844;53.360;9.738;2023-05-10T11:18:28;10.48;;;7.38;;
7605;SDS011;3844;53.360;9.738;2023-05-10T11:20:38;11.38;;;7.88;;
7605;SDS011;3844;53.360;9.738;2023-05-10T11:22:49;14.27;;;8.07;;
7605;SDS011;3844;53.360;9.738;2023-05-10T11:24:58;12.73;;;8.90;;
7605;SDS011;3844;53.360;9.738;2023-05-10T11:27:02;13.98;;;8.85;;
7605;SDS011;3844;53.360;9.738;2023-05-10T11:29:09;13.27;;;8.98;;
7605;SDS011;3844;53.360;9.738;2023-05-10T11:31:15;10.82;;;7.93;;
7605;SDS011;3844;53.360;9.738;2023-05-10T11:33:17;12.10;;;7.90;;
7605;SDS011;3844;53.360;9.738;2023-05-10T11:35:19;11.55;;;7.90;;
7605;SDS011;3844;53.360;9.738;2023-05-10T11:37:20;11.90;;;8.75;;
7605;SDS011;3844;53.360;9.738;2023-05-10T11:39:21;11.50;;;7.75;;
7605;SDS011;3844;53.360;9.738;2023-05-10T11:41:30;10.02;;;7.40;;
7605;SDS011;3844;53.360;9.738;2023-05-10T11:43:31;9.45;;;6.85;;
7605;SDS011;3844;53.360;9.738;2023-05-10T11:45:32;11.48;;;7.05;;
7605;SDS011;3844;53.360;9.738;2023-05-10T11:47:34;10.85;;;7.57;;
7605;SDS011;3844;53.360;9.738;2023-05-10T11:49:36;9.30;;;6.43;;
7605;SDS011;3844;53.360;9.738;2023-05-10T11:51:37;10.98;;;7.53;;
7605;SDS011;3844;53.360;9.738;2023-05-10T11:53:39;9.18;;;6.60;;
7605;SDS011;3844;53.360;9.738;2023-05-10T11:55:40;10.43;;;7.63;;
7605;SDS011;3844;53.360;9.738;2023-05-10T11:57:40;10.30;;;7.68;;
7605;SDS011;3844;53.360;9.738;2023-05-10T11:59:43;11.07;;;7.10;;
7605;SDS011;3844;53.360;9.738;2023-05-10T12:01:45;9.05;;;6.50;;
7605;SDS011;3844;53.360;9.738;2023-05-10T12:03:46;10.32;;;7.40;;
7605;SDS011;3844;53.360;9.738;2023-05-10T12:05:47;11.07;;;7.88;;
7605;SDS011;3844;53.360;9.738;2023-05-10T12:07:48;8.70;;;6.93;;
7605;SDS011;3844;53.360;9.738;2023-05-10T12:10:02;11.48;;;7.72;;
7605;SDS011;3844;53.360;9.738;2023-05-10T12:12:07;10.75;;;8.15;;
7605;SDS011;3844;53.360;9.738;2023-05-10T12:14:08;12.85;;;8.95;;
7605;SDS011;3844;53.360;9.738;2023-05-10T12:16:13;10.50;;;8.07;;
7605;SDS011;3844;53.360;9.738;2023-05-10T12:18:22;11.48;;;9.00;;
7605;SDS011;3844;53.360;9.738;2023-05-10T12:20:27;9.73;;;7.13;;
7605;SDS011;3844;53.360;9.738;2023-05-10T12:22:27;11.60;;;8.45;;
7605;SDS011;3844;53.360;9.738;2023-05-10T12:24:28;9.30;;;6.47;;
7605;SDS011;3844;53.360;9.738;2023-05-10T12:26:33;9.60;;;7.90;;
7605;SDS011;3844;53.360;9.738;2023-05-10T12:28:36;8.90;;;6.85;;
7605;SDS011;3844;53.360;9.738;2023-05-10T12:30:37;9.70;;;7.80;;
7605;SDS011;3844;53.360;9.738;2023-05-10T12:32:39;9.75;;;7.55;;
7605;SDS011;3844;53.360;9.738;2023-05-10T12:34:41;8.13;;;6.97;;
7605;SDS011;3844;53.360;9.738;2023-05-10T12:36:41;10.88;;;8.20;;
7605;SDS011;3844;53.360;9.738;2023-05-10T12:38:43;9.38;;;7.65;;
7605;SDS011;3844;53.360;9.738;2023-05-10T12:40:47;8.25;;;6.43;;
7605;SDS011;3844;53.360;9.738;2023-05-10T12:42:48;11.07;;;8.98;;
7605;SDS011;3844;53.360;9.738;2023-05-10T12:44:49;10.80;;;8.30;;
7605;SDS011;3844;53.360;9.738;2023-05-10T12:46:49;10.52;;;7.85;;
7605;SDS011;3844;53.360;9.738;2023-05-10T12:48:50;8.93;;;6.85;;
7605;SDS011;3844;53.360;9.738;2023-05-10T12:50:54;10.25;;;8.05;;
7605;SDS011;3844;53.360;9.738;2023-05-10T12:52:55;8.85;;;7.50;;
7605;SDS011;3844;53.360;9.738;2023-05-10T12:54:56;8.95;;;6.38;;
7605;SDS011;3844;53.360;9.738;2023-05-10T12:56:56;7.68;;;6.13;;
7605;SDS011;3844;53.360;9.738;2023-05-10T12:58:57;8.73;;;7.10;;
7605;SDS011;3844;53.360;9.738;2023-05-10T13:01:01;7.75;;;6.03;;
7605;SDS011;3844;53.360;9.738;2023-05-10T13:03:03;8.57;;;6.53;;
7605;SDS011;3844;53.360;9.738;2023-05-10T13:05:06;7.45;;;5.97;;
7605;SDS011;3844;53.360;9.738;2023-05-10T13:07:07;10.43;;;7.40;;